sensor_id;sensor_type;location;lat;lon;timestamp;temperature;humidity
51863;DHT22;37900;52.996;6.278;2023-06-10T00:00:37;18.50;91.50
51863;DHT22;37900;52.996;6.278;2023-06-10T00:03:02;18.60;91.50
51863;DHT22;37900;52.996;6.278;2023-06-10T00:05:28;18.50;91.50
51863;DHT22;37900;52.996;6.278;2023-06-10T00:07:57;18.50;91.50
51863;DHT22;37900;52.996;6.278;2023-06-10T00:10:23;18.60;91.50
51863;DHT22;37900;52.996;6.278;2023-06-10T00:12:49;18.50;91.40
51863;DHT22;37900;52.996;6.278;2023-06-10T00:15:15;18.60;91.40
51863;DHT22;37900;52.996;6.278;2023-06-10T00:17:40;18.50;91.40
51863;DHT22;37900;52.996;6.278;2023-06-10T00:20:09;18.60;91.40
51863;DHT22;37900;52.996;6.278;2023-06-10T00:22:37;18.60;91.40
51863;DHT22;37900;52.996;6.278;2023-06-10T00:25:04;18.60;91.40
51863;DHT22;37900;52.996;6.278;2023-06-10T00:27:29;18.60;91.40
51863;DHT22;37900;52.996;6.278;2023-06-10T00:30:04;18.60;91.30
51863;DHT22;37900;52.996;6.278;2023-06-10T00:32:32;18.60;91.30
51863;DHT22;37900;52.996;6.278;2023-06-10T00:34:58;18.50;91.30
51863;DHT22;37900;52.996;6.278;2023-06-10T00:37:23;18.50;91.20
51863;DHT22;37900;52.996;6.278;2023-06-10T00:39:49;18.60;91.30
51863;DHT22;37900;52.996;6.278;2023-06-10T00:42:14;18.60;91.50
51863;DHT22;37900;52.996;6.278;2023-06-10T00:44:40;18.50;91.20
51863;DHT22;37900;52.996;6.278;2023-06-10T00:47:06;18.50;91.20
51863;DHT22;37900;52.996;6.278;2023-06-10T00:49:32;18.50;91.10
51863;DHT22;37900;52.996;6.278;2023-06-10T00:51:58;18.50;91.10
51863;DHT22;37900;52.996;6.278;2023-06-10T00:54:23;18.60;91.10
51863;DHT22;37900;52.996;6.278;2023-06-10T00:56:49;18.50;91.00
51863;DHT22;37900;52.996;6.278;2023-06-10T00:59:15;18.60;90.90
51863;DHT22;37900;52.996;6.278;2023-06-10T01:01:41;18.50;90.90
51863;DHT22;37900;52.996;6.278;2023-06-10T01:04:08;18.50;90.80
51863;DHT22;37900;52.996;6.278;2023-06-10T01:09:21;18.50;90.70
51863;DHT22;37900;52.996;6.278;2023-06-10T01:14:26;18.50;90.70
51863;DHT22;37900;52.996;6.278;2023-06-10T01:16:52;18.50;90.60
51863;DHT22;37900;52.996;6.278;2023-06-10T01:19:18;18.50;90.60
51863;DHT22;37900;52.996;6.278;2023-06-10T01:21:44;18.50;90.50
51863;DHT22;37900;52.996;6.278;2023-06-10T01:24:14;18.60;90.50
51863;DHT22;37900;52.996;6.278;2023-06-10T01:26:45;18.50;90.40
51863;DHT22;37900;52.996;6.278;2023-06-10T01:29:33;18.50;90.40
51863;DHT22;37900;52.996;6.278;2023-06-10T01:32:08;18.50;90.30
51863;DHT22;37900;52.996;6.278;2023-06-10T01:34:36;18.50;90.30
51863;DHT22;37900;52.996;6.278;2023-06-10T01:37:03;18.50;90.20
51863;DHT22;37900;52.996;6.278;2023-06-10T01:39:29;18.50;90.20
51863;DHT22;37900;52.996;6.278;2023-06-10T01:41:54;18.50;90.10
51863;DHT22;37900;52.996;6.278;2023-06-10T01:44:21;18.50;90.10
51863;DHT22;37900;52.996;6.278;2023-06-10T01:46:47;18.50;90.10
51863;DHT22;37900;52.996;6.278;2023-06-10T01:49:12;18.50;90.10
51863;DHT22;37900;52.996;6.278;2023-06-10T01:51:38;18.50;90.00
51863;DHT22;37900;52.996;6.278;2023-06-10T01:54:04;18.50;89.90
51863;DHT22;37900;52.996;6.278;2023-06-10T01:56:30;18.50;89.90
51863;DHT22;37900;52.996;6.278;2023-06-10T01:58:56;18.50;89.80
51863;DHT22;37900;52.996;6.278;2023-06-10T02:01:24;18.50;89.60
51863;DHT22;37900;52.996;6.278;2023-06-10T02:03:50;18.50;89.50
51863;DHT22;37900;52.996;6.278;2023-06-10T02:06:16;18.50;89.80
51863;DHT22;37900;52.996;6.278;2023-06-10T02:08:41;18.50;89.30
51863;DHT22;37900;52.996;6.278;2023-06-10T02:11:07;18.50;89.40
51863;DHT22;37900;52.996;6.278;2023-06-10T02:13:32;18.50;89.20
51863;DHT22;37900;52.996;6.278;2023-06-10T02:15:58;18.50;89.10
51863;DHT22;37900;52.996;6.278;2023-06-10T02:18:25;18.50;88.80
51863;DHT22;37900;52.996;6.278;2023-06-10T02:20:52;18.50;88.90
51863;DHT22;37900;52.996;6.278;2023-06-10T02:23:17;18.50;88.90
51863;DHT22;37900;52.996;6.278;2023-06-10T02:25:43;18.50;88.90
51863;DHT22;37900;52.996;6.278;2023-06-10T02:28:09;18.50;88.80
51863;DHT22;37900;52.996;6.278;2023-06-10T02:30:34;18.50;88.60
51863;DHT22;37900;52.996;6.278;2023-06-10T02:33:00;18.50;88.60
51863;DHT22;37900;52.996;6.278;2023-06-10T02:35:26;18.50;88.40
51863;DHT22;37900;52.996;6.278;2023-06-10T02:37:52;18.50;88.40
51863;DHT22;37900;52.996;6.278;2023-06-10T02:40:17;18.50;88.20
51863;DHT22;37900;52.996;6.278;2023-06-10T02:42:43;18.50;88.10
51863;DHT22;37900;52.996;6.278;2023-06-10T02:45:08;18.40;88.00
51863;DHT22;37900;52.996;6.278;2023-06-10T02:47:34;18.40;87.90
51863;DHT22;37900;52.996;6.278;2023-06-10T02:50:00;18.50;88.00
51863;DHT22;37900;52.996;6.278;2023-06-10T02:52:25;18.40;87.90
51863;DHT22;37900;52.996;6.278;2023-06-10T02:54:51;18.40;88.00
51863;DHT22;37900;52.996;6.278;2023-06-10T02:57:16;18.50;87.80
51863;DHT22;37900;52.996;6.278;2023-06-10T02:59:42;18.40;87.70
51863;DHT22;37900;52.996;6.278;2023-06-10T03:02:07;18.50;87.80
51863;DHT22;37900;52.996;6.278;2023-06-10T03:04:33;18.50;87.70
51863;DHT22;37900;52.996;6.278;2023-06-10T03:06:59;18.40;87.60
51863;DHT22;37900;52.996;6.278;2023-06-10T03:09:29;18.40;87.60
51863;DHT22;37900;52.996;6.278;2023-06-10T03:11:54;18.40;87.60
51863;DHT22;37900;52.996;6.278;2023-06-10T03:14:20;18.40;87.60
51863;DHT22;37900;52.996;6.278;2023-06-10T03:16:46;18.40;87.40
51863;DHT22;37900;52.996;6.278;2023-06-10T03:19:12;18.40;87.40
51863;DHT22;37900;52.996;6.278;2023-06-10T03:21:37;18.40;87.40
51863;DHT22;37900;52.996;6.278;2023-06-10T03:24:04;18.40;87.40
51863;DHT22;37900;52.996;6.278;2023-06-10T03:26:29;18.40;87.40
51863;DHT22;37900;52.996;6.278;2023-06-10T03:28:55;18.40;87.30
51863;DHT22;37900;52.996;6.278;2023-06-10T03:31:20;18.40;87.40
51863;DHT22;37900;52.996;6.278;2023-06-10T03:33:46;18.40;87.50
51863;DHT22;37900;52.996;6.278;2023-06-10T03:36:11;18.40;87.40
51863;DHT22;37900;52.996;6.278;2023-06-10T03:38:37;18.40;87.20
51863;DHT22;37900;52.996;6.278;2023-06-10T03:41:03;18.40;87.20
51863;DHT22;37900;52.996;6.278;2023-06-10T03:43:28;18.40;87.30
51863;DHT22;37900;52.996;6.278;2023-06-10T03:45:54;18.40;87.30
51863;DHT22;37900;52.996;6.278;2023-06-10T03:48:19;18.40;87.30
51863;DHT22;37900;52.996;6.278;2023-06-10T03:50:45;18.40;87.20
51863;DHT22;37900;52.996;6.278;2023-06-10T03:53:12;18.40;87.40
51863;DHT22;37900;52.996;6.278;2023-06-10T03:55:38;18.40;87.40
51863;DHT22;37900;52.996;6.278;2023-06-10T03:58:04;18.30;87.20
51863;DHT22;37900;52.996;6.278;2023-06-10T04:00:30;18.30;87.40
51863;DHT22;37900;52.996;6.278;2023-06-10T04:02:55;18.40;87.40
51863;DHT22;37900;52.996;6.278;2023-06-10T04:05:23;18.40;87.40
51863;DHT22;37900;52.996;6.278;2023-06-10T04:07:49;18.30;87.30
51863;DHT22;37900;52.996;6.278;2023-06-10T04:10:14;18.40;87.50
51863;DHT22;37900;52.996;6.278;2023-06-10T04:12:40;18.30;87.40
51863;DHT22;37900;52.996;6.278;2023-06-10T04:15:06;18.30;87.40
51863;DHT22;37900;52.996;6.278;2023-06-10T04:17:32;18.40;87.50
51863;DHT22;37900;52.996;6.278;2023-06-10T04:19:57;18.40;87.50
51863;DHT22;37900;52.996;6.278;2023-06-10T04:22:23;18.30;87.50
51863;DHT22;37900;52.996;6.278;2023-06-10T04:24:49;18.30;87.50
51863;DHT22;37900;52.996;6.278;2023-06-10T04:27:14;18.30;87.50
51863;DHT22;37900;52.996;6.278;2023-06-10T04:29:40;18.30;87.60
51863;DHT22;37900;52.996;6.278;2023-06-10T04:32:06;18.30;87.60
51863;DHT22;37900;52.996;6.278;2023-06-10T04:34:36;18.40;87.80
51863;DHT22;37900;52.996;6.278;2023-06-10T04:37:01;18.30;87.80
51863;DHT22;37900;52.996;6.278;2023-06-10T04:39:27;18.40;88.00
51863;DHT22;37900;52.996;6.278;2023-06-10T04:41:52;18.40;88.00
51863;DHT22;37900;52.996;6.278;2023-06-10T04:44:18;18.30;88.10
51863;DHT22;37900;52.996;6.278;2023-06-10T04:46:44;18.40;88.20
51863;DHT22;37900;52.996;6.278;2023-06-10T04:49:09;18.40;88.30
51863;DHT22;37900;52.996;6.278;2023-06-10T04:51:35;18.40;88.40
51863;DHT22;37900;52.996;6.278;2023-06-10T04:54:01;18.40;88.40
51863;DHT22;37900;52.996;6.278;2023-06-10T04:56:30;18.40;88.50
51863;DHT22;37900;52.996;6.278;2023-06-10T04:58:56;18.40;88.60
51863;DHT22;37900;52.996;6.278;2023-06-10T05:01:22;18.40;88.60
51863;DHT22;37900;52.996;6.278;2023-06-10T05:03:47;18.40;88.70
51863;DHT22;37900;52.996;6.278;2023-06-10T05:06:13;18.40;88.70
51863;DHT22;37900;52.996;6.278;2023-06-10T05:08:38;18.50;88.80
51863;DHT22;37900;52.996;6.278;2023-06-10T05:11:04;18.50;88.80
51863;DHT22;37900;52.996;6.278;2023-06-10T05:13:29;18.50;88.80
51863;DHT22;37900;52.996;6.278;2023-06-10T05:15:55;18.50;88.90
51863;DHT22;37900;52.996;6.278;2023-06-10T05:18:20;18.50;88.90
51863;DHT22;37900;52.996;6.278;2023-06-10T05:20:46;18.50;89.00
51863;DHT22;37900;52.996;6.278;2023-06-10T05:23:12;18.50;89.10
51863;DHT22;37900;52.996;6.278;2023-06-10T05:25:37;18.50;89.10
51863;DHT22;37900;52.996;6.278;2023-06-10T05:28:03;18.50;89.20
51863;DHT22;37900;52.996;6.278;2023-06-10T05:30:28;18.50;89.30
51863;DHT22;37900;52.996;6.278;2023-06-10T05:32:54;18.50;89.30
51863;DHT22;37900;52.996;6.278;2023-06-10T05:35:21;18.50;89.50
51863;DHT22;37900;52.996;6.278;2023-06-10T05:37:47;18.50;89.50
51863;DHT22;37900;52.996;6.278;2023-06-10T05:40:13;18.50;89.60
51863;DHT22;37900;52.996;6.278;2023-06-10T05:42:38;18.50;89.60
51863;DHT22;37900;52.996;6.278;2023-06-10T05:45:05;18.50;89.70
51863;DHT22;37900;52.996;6.278;2023-06-10T05:47:31;18.60;89.90
51863;DHT22;37900;52.996;6.278;2023-06-10T05:49:57;18.50;89.80
51863;DHT22;37900;52.996;6.278;2023-06-10T05:52:22;18.60;89.90
51863;DHT22;37900;52.996;6.278;2023-06-10T05:54:48;18.60;89.90
51863;DHT22;37900;52.996;6.278;2023-06-10T05:57:14;18.60;90.00
51863;DHT22;37900;52.996;6.278;2023-06-10T05:59:40;18.60;90.00
51863;DHT22;37900;52.996;6.278;2023-06-10T06:02:06;18.60;90.00
51863;DHT22;37900;52.996;6.278;2023-06-10T06:04:32;18.60;90.00
51863;DHT22;37900;52.996;6.278;2023-06-10T06:06:57;18.60;90.00
51863;DHT22;37900;52.996;6.278;2023-06-10T06:09:23;18.70;90.10
51863;DHT22;37900;52.996;6.278;2023-06-10T06:11:48;18.70;90.10
51863;DHT22;37900;52.996;6.278;2023-06-10T06:14:14;18.70;90.10
51863;DHT22;37900;52.996;6.278;2023-06-10T06:16:40;18.70;90.20
51863;DHT22;37900;52.996;6.278;2023-06-10T06:19:05;18.70;90.40
51863;DHT22;37900;52.996;6.278;2023-06-10T06:21:31;18.70;90.20
51863;DHT22;37900;52.996;6.278;2023-06-10T06:23:57;18.70;90.20
51863;DHT22;37900;52.996;6.278;2023-06-10T06:26:23;18.70;90.20
51863;DHT22;37900;52.996;6.278;2023-06-10T06:28:48;18.70;90.20
51863;DHT22;37900;52.996;6.278;2023-06-10T06:31:14;18.70;90.20
51863;DHT22;37900;52.996;6.278;2023-06-10T06:33:40;18.70;90.20
51863;DHT22;37900;52.996;6.278;2023-06-10T06:36:05;18.70;90.20
51863;DHT22;37900;52.996;6.278;2023-06-10T06:38:31;18.70;90.30
51863;DHT22;37900;52.996;6.278;2023-06-10T06:40:57;18.80;90.30
51863;DHT22;37900;52.996;6.278;2023-06-10T06:43:28;18.70;90.30
51863;DHT22;37900;52.996;6.278;2023-06-10T06:45:53;18.70;90.30
51863;DHT22;37900;52.996;6.278;2023-06-10T06:48:19;18.70;90.30
51863;DHT22;37900;52.996;6.278;2023-06-10T06:50:45;18.80;90.30
51863;DHT22;37900;52.996;6.278;2023-06-10T06:53:10;18.70;90.20
51863;DHT22;37900;52.996;6.278;2023-06-10T06:55:36;18.70;90.20
51863;DHT22;37900;52.996;6.278;2023-06-10T06:58:01;18.70;90.30
51863;DHT22;37900;52.996;6.278;2023-06-10T07:00:29;18.70;90.30
51863;DHT22;37900;52.996;6.278;2023-06-10T07:02:55;18.80;90.30
51863;DHT22;37900;52.996;6.278;2023-06-10T07:05:23;18.80;90.30
51863;DHT22;37900;52.996;6.278;2023-06-10T07:07:50;18.80;90.30
51863;DHT22;37900;52.996;6.278;2023-06-10T07:10:21;18.70;90.30
51863;DHT22;37900;52.996;6.278;2023-06-10T07:12:47;18.70;90.30
51863;DHT22;37900;52.996;6.278;2023-06-10T07:15:13;18.80;90.30
51863;DHT22;37900;52.996;6.278;2023-06-10T07:17:39;18.80;90.30
51863;DHT22;37900;52.996;6.278;2023-06-10T07:20:04;18.80;90.30
51863;DHT22;37900;52.996;6.278;2023-06-10T07:22:30;18.80;90.30
51863;DHT22;37900;52.996;6.278;2023-06-10T07:24:56;18.70;90.30
51863;DHT22;37900;52.996;6.278;2023-06-10T07:27:21;18.80;90.30
51863;DHT22;37900;52.996;6.278;2023-06-10T07:29:47;18.80;90.30
51863;DHT22;37900;52.996;6.278;2023-06-10T07:32:12;18.80;90.30
51863;DHT22;37900;52.996;6.278;2023-06-10T07:34:38;18.80;90.30
51863;DHT22;37900;52.996;6.278;2023-06-10T07:37:04;18.80;90.30
51863;DHT22;37900;52.996;6.278;2023-06-10T07:39:29;18.70;90.30
51863;DHT22;37900;52.996;6.278;2023-06-10T07:41:55;18.70;90.30
51863;DHT22;37900;52.996;6.278;2023-06-10T07:44:22;18.80;90.30
51863;DHT22;37900;52.996;6.278;2023-06-10T07:46:48;18.80;90.30
51863;DHT22;37900;52.996;6.278;2023-06-10T07:49:14;18.70;90.30
51863;DHT22;37900;52.996;6.278;2023-06-10T07:51:39;18.80;90.30
51863;DHT22;37900;52.996;6.278;2023-06-10T07:54:05;18.70;90.30
51863;DHT22;37900;52.996;6.278;2023-06-10T07:56:30;18.80;90.30
51863;DHT22;37900;52.996;6.278;2023-06-10T07:58:57;18.80;90.30
51863;DHT22;37900;52.996;6.278;2023-06-10T08:01:22;18.80;90.30
51863;DHT22;37900;52.996;6.278;2023-06-10T08:03:48;18.70;90.30
51863;DHT22;37900;52.996;6.278;2023-06-10T08:06:14;18.80;90.60
51863;DHT22;37900;52.996;6.278;2023-06-10T08:08:42;18.80;90.30
51863;DHT22;37900;52.996;6.278;2023-06-10T08:11:12;18.80;90.40
51863;DHT22;37900;52.996;6.278;2023-06-10T08:13:37;18.80;90.30
51863;DHT22;37900;52.996;6.278;2023-06-10T08:16:03;18.80;90.30
51863;DHT22;37900;52.996;6.278;2023-06-10T08:18:29;18.80;90.30
51863;DHT22;37900;52.996;6.278;2023-06-10T08:20:54;18.80;90.40
51863;DHT22;37900;52.996;6.278;2023-06-10T08:23:20;18.80;90.40
51863;DHT22;37900;52.996;6.278;2023-06-10T08:25:46;18.70;90.30
51863;DHT22;37900;52.996;6.278;2023-06-10T08:28:11;18.80;90.40
51863;DHT22;37900;52.996;6.278;2023-06-10T08:30:37;18.80;90.40
51863;DHT22;37900;52.996;6.278;2023-06-10T08:33:02;18.80;90.40
51863;DHT22;37900;52.996;6.278;2023-06-10T08:35:28;18.80;90.30
51863;DHT22;37900;52.996;6.278;2023-06-10T08:37:54;18.80;90.30
51863;DHT22;37900;52.996;6.278;2023-06-10T08:40:19;18.80;90.60
51863;DHT22;37900;52.996;6.278;2023-06-10T08:42:45;18.80;90.30
51863;DHT22;37900;52.996;6.278;2023-06-10T08:45:16;18.80;90.30
51863;DHT22;37900;52.996;6.278;2023-06-10T08:47:42;18.80;90.30
51863;DHT22;37900;52.996;6.278;2023-06-10T08:50:09;18.80;90.30
51863;DHT22;37900;52.996;6.278;2023-06-10T08:52:36;18.80;90.30
51863;DHT22;37900;52.996;6.278;2023-06-10T08:55:03;18.80;90.30
51863;DHT22;37900;52.996;6.278;2023-06-10T08:57:29;18.80;90.30
51863;DHT22;37900;52.996;6.278;2023-06-10T08:59:56;18.80;90.30
51863;DHT22;37900;52.996;6.278;2023-06-10T09:02:22;18.80;90.30
51863;DHT22;37900;52.996;6.278;2023-06-10T09:04:48;18.80;90.30
51863;DHT22;37900;52.996;6.278;2023-06-10T09:07:17;18.80;90.30
51863;DHT22;37900;52.996;6.278;2023-06-10T09:09:44;18.80;90.30
51863;DHT22;37900;52.996;6.278;2023-06-10T09:12:10;18.80;90.30
51863;DHT22;37900;52.996;6.278;2023-06-10T09:14:36;18.80;90.30
51863;DHT22;37900;52.996;6.278;2023-06-10T09:17:02;18.80;90.30
51863;DHT22;37900;52.996;6.278;2023-06-10T09:19:28;18.80;90.30
51863;DHT22;37900;52.996;6.278;2023-06-10T09:21:53;18.80;90.30
51863;DHT22;37900;52.996;6.278;2023-06-10T09:24:20;18.80;90.30
51863;DHT22;37900;52.996;6.278;2023-06-10T09:26:47;18.80;90.30
51863;DHT22;37900;52.996;6.278;2023-06-10T09:29:12;18.80;90.30
51863;DHT22;37900;52.996;6.278;2023-06-10T09:31:38;18.80;90.50
51863;DHT22;37900;52.996;6.278;2023-06-10T09:34:08;18.80;90.30
51863;DHT22;37900;52.996;6.278;2023-06-10T09:36:35;18.80;90.20
51863;DHT22;37900;52.996;6.278;2023-06-10T09:39:01;18.80;90.20
51863;DHT22;37900;52.996;6.278;2023-06-10T09:41:34;18.80;90.20
51863;DHT22;37900;52.996;6.278;2023-06-10T09:44:00;18.80;90.20
51863;DHT22;37900;52.996;6.278;2023-06-10T09:46:30;18.80;90.20
51863;DHT22;37900;52.996;6.278;2023-06-10T09:48:55;18.80;90.20
51863;DHT22;37900;52.996;6.278;2023-06-10T09:51:22;18.80;90.20
51863;DHT22;37900;52.996;6.278;2023-06-10T09:53:48;18.80;90.20
51863;DHT22;37900;52.996;6.278;2023-06-10T09:56:15;18.80;90.20
51863;DHT22;37900;52.996;6.278;2023-06-10T09:58:41;18.80;90.20
51863;DHT22;37900;52.996;6.278;2023-06-10T10:01:09;18.80;90.30
51863;DHT22;37900;52.996;6.278;2023-06-10T10:03:49;18.80;90.10
51863;DHT22;37900;52.996;6.278;2023-06-10T10:06:15;18.80;90.10
51863;DHT22;37900;52.996;6.278;2023-06-10T10:08:41;18.80;90.10
51863;DHT22;37900;52.996;6.278;2023-06-10T10:11:07;18.80;90.10
51863;DHT22;37900;52.996;6.278;2023-06-10T10:13:33;18.80;90.10
51863;DHT22;37900;52.996;6.278;2023-06-10T10:16:00;18.80;90.10
51863;DHT22;37900;52.996;6.278;2023-06-10T10:18:27;18.80;90.10
51863;DHT22;37900;52.996;6.278;2023-06-10T10:20:55;18.80;90.10
51863;DHT22;37900;52.996;6.278;2023-06-10T10:23:24;18.80;90.10
51863;DHT22;37900;52.996;6.278;2023-06-10T10:25:52;18.80;90.10
51863;DHT22;37900;52.996;6.278;2023-06-10T10:28:19;18.80;90.00
51863;DHT22;37900;52.996;6.278;2023-06-10T10:30:50;18.80;90.10
51863;DHT22;37900;52.996;6.278;2023-06-10T10:33:20;18.80;90.00
51863;DHT22;37900;52.996;6.278;2023-06-10T10:35:48;18.80;90.00
51863;DHT22;37900;52.996;6.278;2023-06-10T10:38:15;18.80;90.00
51863;DHT22;37900;52.996;6.278;2023-06-10T10:40:40;18.90;90.00
51863;DHT22;37900;52.996;6.278;2023-06-10T10:43:06;18.80;90.00
51863;DHT22;37900;52.996;6.278;2023-06-10T10:45:33;18.80;90.00
51863;DHT22;37900;52.996;6.278;2023-06-10T10:47:58;18.90;90.00
51863;DHT22;37900;52.996;6.278;2023-06-10T10:50:30;18.90;90.00
51863;DHT22;37900;52.996;6.278;2023-06-10T10:53:00;18.80;89.90
51863;DHT22;37900;52.996;6.278;2023-06-10T10:55:26;18.80;89.90
51863;DHT22;37900;52.996;6.278;2023-06-10T10:57:59;18.80;89.80
51863;DHT22;37900;52.996;6.278;2023-06-10T11:00:31;18.90;89.90
51863;DHT22;37900;52.996;6.278;2023-06-10T11:05:36;18.90;89.80
51863;DHT22;37900;52.996;6.278;2023-06-10T11:08:05;18.90;89.80
51863;DHT22;37900;52.996;6.278;2023-06-10T11:10:35;18.90;89.70
51863;DHT22;37900;52.996;6.278;2023-06-10T11:15:33;18.90;89.70
51863;DHT22;37900;52.996;6.278;2023-06-10T11:21:00;18.90;89.60
51863;DHT22;37900;52.996;6.278;2023-06-10T11:26:17;18.90;89.60
51863;DHT22;37900;52.996;6.278;2023-06-10T11:31:21;18.90;89.50
51863;DHT22;37900;52.996;6.278;2023-06-10T11:33:47;18.90;89.40
51863;DHT22;37900;52.996;6.278;2023-06-10T11:36:14;18.90;89.50
51863;DHT22;37900;52.996;6.278;2023-06-10T11:38:42;18.90;89.40
51863;DHT22;37900;52.996;6.278;2023-06-10T11:41:08;18.90;89.40
51863;DHT22;37900;52.996;6.278;2023-06-10T11:43:34;18.90;89.30
51863;DHT22;37900;52.996;6.278;2023-06-10T11:46:00;18.90;89.30
51863;DHT22;37900;52.996;6.278;2023-06-10T11:48:26;18.90;89.30
51863;DHT22;37900;52.996;6.278;2023-06-10T11:50:55;18.90;89.30
51863;DHT22;37900;52.996;6.278;2023-06-10T11:53:21;18.90;89.20
51863;DHT22;37900;52.996;6.278;2023-06-10T11:55:47;18.90;89.20
51863;DHT22;37900;52.996;6.278;2023-06-10T11:58:20;18.90;89.20
51863;DHT22;37900;52.996;6.278;2023-06-10T12:00:47;18.90;89.20
51863;DHT22;37900;52.996;6.278;2023-06-10T12:03:12;18.90;89.10
51863;DHT22;37900;52.996;6.278;2023-06-10T12:05:38;18.90;89.10
51863;DHT22;37900;52.996;6.278;2023-06-10T12:08:10;18.90;89.00
51863;DHT22;37900;52.996;6.278;2023-06-10T12:10:40;18.90;89.00
51863;DHT22;37900;52.996;6.278;2023-06-10T12:13:06;18.90;89.00
51863;DHT22;37900;52.996;6.278;2023-06-10T12:15:33;18.90;88.90
51863;DHT22;37900;52.996;6.278;2023-06-10T12:17:58;18.90;88.90
51863;DHT22;37900;52.996;6.278;2023-06-10T12:20:24;18.90;88.80
51863;DHT22;37900;52.996;6.278;2023-06-10T12:22:50;18.90;88.70
51863;DHT22;37900;52.996;6.278;2023-06-10T12:25:16;18.90;88.70
51863;DHT22;37900;52.996;6.278;2023-06-10T12:27:51;18.90;88.60
51863;DHT22;37900;52.996;6.278;2023-06-10T12:30:27;18.90;88.60
51863;DHT22;37900;52.996;6.278;2023-06-10T12:32:53;18.90;88.50
51863;DHT22;37900;52.996;6.278;2023-06-10T12:35:19;18.90;88.50
51863;DHT22;37900;52.996;6.278;2023-06-10T12:40:25;18.90;88.30
51863;DHT22;37900;52.996;6.278;2023-06-10T12:42:51;18.90;88.30
51863;DHT22;37900;52.996;6.278;2023-06-10T12:45:25;18.90;88.20
51863;DHT22;37900;52.996;6.278;2023-06-10T12:47:51;18.90;88.10
51863;DHT22;37900;52.996;6.278;2023-06-10T12:50:17;18.90;88.10
51863;DHT22;37900;52.996;6.278;2023-06-10T12:52:42;18.90;88.10
51863;DHT22;37900;52.996;6.278;2023-06-10T12:55:08;18.90;88.00
51863;DHT22;37900;52.996;6.278;2023-06-10T12:57:33;18.90;87.90
51863;DHT22;37900;52.996;6.278;2023-06-10T12:59:59;18.90;87.90
51863;DHT22;37900;52.996;6.278;2023-06-10T13:02:28;18.90;87.80
51863;DHT22;37900;52.996;6.278;2023-06-10T13:04:53;18.90;87.80
51863;DHT22;37900;52.996;6.278;2023-06-10T13:07:19;18.90;87.80
51863;DHT22;37900;52.996;6.278;2023-06-10T13:09:45;18.90;87.80
51863;DHT22;37900;52.996;6.278;2023-06-10T13:12:14;18.90;87.70
51863;DHT22;37900;52.996;6.278;2023-06-10T13:14:39;18.90;87.70
51863;DHT22;37900;52.996;6.278;2023-06-10T13:17:05;18.90;87.70
51863;DHT22;37900;52.996;6.278;2023-06-10T13:19:33;18.90;87.60
51863;DHT22;37900;52.996;6.278;2023-06-10T13:21:59;18.90;87.60
51863;DHT22;37900;52.996;6.278;2023-06-10T13:24:24;18.90;87.50
51863;DHT22;37900;52.996;6.278;2023-06-10T13:26:51;18.90;87.50
51863;DHT22;37900;52.996;6.278;2023-06-10T13:29:17;18.90;87.50
51863;DHT22;37900;52.996;6.278;2023-06-10T13:31:43;19.00;87.60
51863;DHT22;37900;52.996;6.278;2023-06-10T13:34:08;18.90;87.50
51863;DHT22;37900;52.996;6.278;2023-06-10T13:36:34;18.90;87.50
51863;DHT22;37900;52.996;6.278;2023-06-10T13:39:00;19.00;87.50
51863;DHT22;37900;52.996;6.278;2023-06-10T13:41:25;19.00;87.50
51863;DHT22;37900;52.996;6.278;2023-06-10T13:43:54;19.00;87.50
51863;DHT22;37900;52.996;6.278;2023-06-10T13:46:19;19.00;87.50
51863;DHT22;37900;52.996;6.278;2023-06-10T13:48:47;18.90;87.50
51863;DHT22;37900;52.996;6.278;2023-06-10T13:51:12;19.00;87.50
51863;DHT22;37900;52.996;6.278;2023-06-10T13:53:38;19.00;87.50
51863;DHT22;37900;52.996;6.278;2023-06-10T13:56:03;19.00;87.50
51863;DHT22;37900;52.996;6.278;2023-06-10T13:58:29;19.00;87.50
51863;DHT22;37900;52.996;6.278;2023-06-10T14:00:54;19.00;87.50
51863;DHT22;37900;52.996;6.278;2023-06-10T14:03:20;19.00;87.50
51863;DHT22;37900;52.996;6.278;2023-06-10T14:05:46;19.00;87.50
51863;DHT22;37900;52.996;6.278;2023-06-10T14:08:11;19.00;87.50
51863;DHT22;37900;52.996;6.278;2023-06-10T14:10:37;19.00;87.50
51863;DHT22;37900;52.996;6.278;2023-06-10T14:13:03;19.00;87.50
51863;DHT22;37900;52.996;6.278;2023-06-10T14:15:28;19.00;87.50
51863;DHT22;37900;52.996;6.278;2023-06-10T14:17:54;19.00;87.50
51863;DHT22;37900;52.996;6.278;2023-06-10T14:20:20;19.00;87.50
51863;DHT22;37900;52.996;6.278;2023-06-10T14:22:45;19.00;87.50
51863;DHT22;37900;52.996;6.278;2023-06-10T14:25:11;19.00;87.50
51863;DHT22;37900;52.996;6.278;2023-06-10T14:27:37;19.00;87.50
51863;DHT22;37900;52.996;6.278;2023-06-10T14:30:02;19.00;87.50
51863;DHT22;37900;52.996;6.278;2023-06-10T14:32:29;19.00;87.50
51863;DHT22;37900;52.996;6.278;2023-06-10T14:34:54;19.00;87.50
51863;DHT22;37900;52.996;6.278;2023-06-10T14:37:20;19.00;87.60
51863;DHT22;37900;52.996;6.278;2023-06-10T14:39:46;19.00;87.60
51863;DHT22;37900;52.996;6.278;2023-06-10T14:42:11;19.00;87.50
51863;DHT22;37900;52.996;6.278;2023-06-10T14:44:37;19.10;87.60
51863;DHT22;37900;52.996;6.278;2023-06-10T14:47:02;19.00;87.60
51863;DHT22;37900;52.996;6.278;2023-06-10T14:49:28;19.00;87.60
51863;DHT22;37900;52.996;6.278;2023-06-10T14:51:53;19.00;87.50
51863;DHT22;37900;52.996;6.278;2023-06-10T14:54:19;19.00;87.60
51863;DHT22;37900;52.996;6.278;2023-06-10T14:56:45;19.00;87.60
51863;DHT22;37900;52.996;6.278;2023-06-10T14:59:10;19.10;87.70
51863;DHT22;37900;52.996;6.278;2023-06-10T15:01:36;19.10;87.60
51863;DHT22;37900;52.996;6.278;2023-06-10T15:04:01;19.00;87.60
51863;DHT22;37900;52.996;6.278;2023-06-10T15:06:27;19.10;87.70
51863;DHT22;37900;52.996;6.278;2023-06-10T15:08:53;19.10;87.70
51863;DHT22;37900;52.996;6.278;2023-06-10T15:11:18;19.10;87.70
51863;DHT22;37900;52.996;6.278;2023-06-10T15:13:44;19.10;87.70
51863;DHT22;37900;52.996;6.278;2023-06-10T15:16:09;19.10;87.70
51863;DHT22;37900;52.996;6.278;2023-06-10T15:18:35;19.10;87.70
51863;DHT22;37900;52.996;6.278;2023-06-10T15:21:00;19.10;87.70
51863;DHT22;37900;52.996;6.278;2023-06-10T15:23:26;19.10;87.70
51863;DHT22;37900;52.996;6.278;2023-06-10T15:25:52;19.10;87.70
51863;DHT22;37900;52.996;6.278;2023-06-10T15:28:17;19.10;87.70
51863;DHT22;37900;52.996;6.278;2023-06-10T15:30:43;19.10;87.70
51863;DHT22;37900;52.996;6.278;2023-06-10T15:33:08;19.10;87.70
51863;DHT22;37900;52.996;6.278;2023-06-10T15:35:34;19.10;87.70
51863;DHT22;37900;52.996;6.278;2023-06-10T15:37:59;19.10;87.70
51863;DHT22;37900;52.996;6.278;2023-06-10T15:40:25;19.10;87.70
51863;DHT22;37900;52.996;6.278;2023-06-10T15:42:51;19.10;87.70
51863;DHT22;37900;52.996;6.278;2023-06-10T15:45:17;19.10;87.70